Time;durP1;ratioP1;P1;durP2;ratioP2;P2;SDS_P1;SDS_P2;PMS_P1;PMS_P2;Temp;Humidity;BMP_temperature;BMP_pressure;BME280_temperature;BME280_humidity;BME280_pressure;Samples;Min_cycle;Max_cycle;Signal;HPM_P1;HPM_P2
2023/01/15 00:00:50;;;;;;;0.30;0.10;;;10.80;64.70;;;;;;4975557;28;20027;-76
2023/01/15 00:03:16;;;;;;;2.17;0.55;;;10.80;64.90;;;;;;4975406;28;20027;-77
2023/01/15 00:05:41;;;;;;;0.40;0.20;;;10.80;64.30;;;;;;4975267;28;20034;-76
2023/01/15 00:08:07;;;;;;;0.20;0.10;;;10.80;64.40;;;;;;4975559;28;20054;-77
2023/01/15 00:10:35;;;;;;;1.02;0.30;;;10.80;64.50;;;;;;4975516;28;20022;-76
2023/01/15 00:13:01;;;;;;;2.28;0.30;;;10.80;64.60;;;;;;4975392;28;20026;-76
2023/01/15 00:15:26;;;;;;;0.32;0.28;;;10.80;64.70;;;;;;4975292;28;20049;-76
2023/01/15 00:17:52;;;;;;;2.38;0.38;;;10.70;66.00;;;;;;4976094;28;20079;-76
2023/01/15 00:20:21;;;;;;;0.40;0.20;;;10.70;65.50;;;;;;4959014;28;20045;-78
2023/01/15 00:22:47;;;;;;;0.60;0.22;;;10.70;65.10;;;;;;4975559;28;20026;-77
2023/01/15 00:27:57;;;;;;;1.00;0.10;;;10.80;65.00;;;;;;4992507;28;20122;-76
2023/01/15 00:30:23;;;;;;;0.63;0.10;;;10.70;65.40;;;;;;4975283;28;20117;-76
2023/01/15 00:32:49;;;;;;;0.43;0.10;;;10.70;65.60;;;;;;4975217;28;20079;-77
2023/01/15 00:35:24;;;;;;;0.10;0.10;;;10.80;66.60;;;;;;4974981;28;20440;-76
2023/01/15 00:37:50;;;;;;;0.10;0.10;;;10.70;66.50;;;;;;4959107;28;20029;-76
2023/01/15 00:40:19;;;;;;;0.35;0.10;;;10.70;66.90;;;;;;4974949;28;20107;-76
2023/01/15 00:42:45;;;;;;;0.28;0.10;;;10.70;66.40;;;;;;4974853;28;20030;-76
2023/01/15 00:45:11;;;;;;;0.25;0.13;;;10.80;66.70;;;;;;4974561;28;20026;-76
2023/01/15 00:47:38;;;;;;;1.50;0.10;;;10.70;67.30;;;;;;4975516;28;20029;-76
2023/01/15 00:50:06;;;;;;;2.08;0.25;;;10.70;67.00;;;;;;4974108;28;20071;-76
2023/01/15 00:52:32;;;;;;;0.17;0.10;;;10.70;67.90;;;;;;4991494;28;20061;-75
2023/01/15 00:54:58;;;;;;;0.22;0.20;;;10.60;68.60;;;;;;4974476;28;20078;-75
2023/01/15 00:57:24;;;;;;;0.10;0.10;;;10.60;68.80;;;;;;4974619;28;20038;-76
2023/01/15 00:59:49;;;;;;;0.10;0.10;;;10.60;69.60;;;;;;4990595;28;20056;-76
2023/01/15 01:02:15;;;;;;;2.38;0.10;;;10.60;69.90;;;;;;4974631;28;20135;-75
2023/01/15 01:04:41;;;;;;;0.10;0.10;;;10.50;70.30;;;;;;4974767;28;20022;-75
2023/01/15 01:07:06;;;;;;;0.10;0.10;;;10.50;70.60;;;;;;4974217;28;20383;-75
2023/01/15 01:09:32;;;;;;;1.00;0.28;;;10.50;71.10;;;;;;4974319;28;20055;-76
2023/01/15 01:11:57;;;;;;;0.10;0.10;;;10.40;71.70;;;;;;4974416;28;20038;-76
2023/01/15 01:14:23;;;;;;;0.10;0.00;;;10.40;71.90;;;;;;4974638;28;20034;-76
2023/01/15 01:16:49;;;;;;;0.20;0.20;;;10.30;72.50;;;;;;4974429;28;20031;-75
2023/01/15 01:19:17;;;;;;;0.10;0.10;;;10.30;73.00;;;;;;4974043;28;20410;-75
2023/01/15 01:21:43;;;;;;;0.10;0.10;;;10.30;73.40;;;;;;4974477;28;20121;-75
2023/01/15 01:24:12;;;;;;;0.20;0.10;;;10.20;73.30;;;;;;4974057;28;20390;-75
2023/01/15 01:26:38;;;;;;;0.10;0.10;;;10.20;73.60;;;;;;4973916;28;20036;-75
2023/01/15 01:29:03;;;;;;;0.20;0.20;;;10.20;75.00;;;;;;4974136;28;20079;-77
2023/01/15 01:31:29;;;;;;;1.25;0.28;;;10.20;74.20;;;;;;4974363;28;20034;-79
2023/01/15 01:33:57;;;;;;;0.70;0.20;;;10.20;74.70;;;;;;4974153;28;20045;-78
2023/01/15 01:36:28;;;;;;;1.13;0.20;;;10.10;75.30;;;;;;4974139;28;20061;-78
2023/01/15 01:38:54;;;;;;;0.30;0.10;;;10.10;75.80;;;;;;4974150;28;20117;-78
2023/01/15 01:41:20;;;;;;;0.30;0.10;;;10.10;75.70;;;;;;4958074;28;20130;-78
2023/01/15 01:43:56;;;;;;;0.40;0.10;;;10.10;75.60;;;;;;4974246;28;20026;-76
2023/01/15 01:46:22;;;;;;;0.57;0.00;;;10.10;75.80;;;;;;4974147;28;20023;-76
2023/01/15 01:48:52;;;;;;;0.17;0.00;;;10.10;75.20;;;;;;4991216;28;20073;-77
2023/01/15 01:51:21;;;;;;;0.10;0.10;;;10.20;74.80;;;;;;4973815;28;20050;-76
2023/01/15 01:53:47;;;;;;;0.77;0.10;;;10.30;74.70;;;;;;4973343;28;20089;-79
2023/01/15 01:56:16;;;;;;;0.10;0.10;;;10.30;74.60;;;;;;4990956;28;20083;-79
2023/01/15 01:58:49;;;;;;;0.28;0.10;;;10.30;74.70;;;;;;4973592;28;20027;-79
2023/01/15 02:01:16;;;;;;;1.95;0.17;;;10.40;74.10;;;;;;4972711;28;20124;-79
2023/01/15 02:03:42;;;;;;;0.30;0.10;;;10.40;73.80;;;;;;4973668;28;20019;-78
2023/01/15 02:06:10;;;;;;;0.15;0.08;;;10.50;73.50;;;;;;4973542;28;20029;-78
2023/01/15 02:08:38;;;;;;;0.00;0.00;;;10.60;73.40;;;;;;4973629;28;20122;-78
2023/01/15 02:11:11;;;;;;;0.22;0.10;;;10.50;73.80;;;;;;4973721;28;20030;-77
2023/01/15 02:13:38;;;;;;;0.00;0.00;;;10.50;73.70;;;;;;4973639;28;20436;-78
2023/01/15 02:16:22;;;;;;;0.13;0.10;;;10.50;74.40;;;;;;4973561;28;20063;-78
2023/01/15 02:18:57;;;;;;;0.38;0.10;;;10.50;73.70;;;;;;4973321;28;20018;-79
2023/01/15 02:21:47;;;;;;;0.08;0.08;;;10.50;73.70;;;;;;4973869;28;20034;-78
2023/01/15 02:24:38;;;;;;;1.85;0.20;;;10.40;74.40;;;;;;4973357;28;20087;-78
2023/01/15 02:27:15;;;;;;;0.32;0.20;;;10.40;75.00;;;;;;4989308;28;20053;-79
2023/01/15 02:29:45;;;;;;;0.43;0.13;;;10.30;75.90;;;;;;4973624;28;20041;-79
2023/01/15 02:32:21;;;;;;;0.00;0.00;;;10.30;75.70;;;;;;4973520;28;20568;-79
2023/01/15 02:34:52;;;;;;;0.17;0.00;;;10.30;75.70;;;;;;4973243;28;20406;-78
2023/01/15 02:37:31;;;;;;;0.20;0.10;;;10.40;75.80;;;;;;4973269;28;20449;-79
2023/01/15 02:40:00;;;;;;;0.40;0.10;;;10.30;75.70;;;;;;4973415;28;20057;-79
2023/01/15 02:42:29;;;;;;;0.13;0.08;;;10.40;75.80;;;;;;4973156;28;20031;-78
2023/01/15 02:44:58;;;;;;;0.20;0.10;;;10.30;76.60;;;;;;4973018;28;20049;-78
2023/01/15 02:47:28;;;;;;;0.00;0.00;;;10.30;77.60;;;;;;4973243;28;20026;-79
2023/01/15 02:49:56;;;;;;;0.82;0.20;;;10.20;78.10;;;;;;4974399;28;20073;-79
2023/01/15 02:52:29;;;;;;;0.00;0.00;;;10.10;79.00;;;;;;4973070;28;20049;-78
2023/01/15 02:55:18;;;;;;;1.38;0.20;;;10.10;78.90;;;;;;4972966;28;20049;-78
2023/01/15 02:57:46;;;;;;;0.50;0.10;;;10.10;79.40;;;;;;4973373;28;20077;-77
2023/01/15 03:00:15;;;;;;;1.08;0.13;;;10.10;79.70;;;;;;4974803;28;20061;-79
2023/01/15 03:03:13;;;;;;;0.80;0.10;;;10.00;79.80;;;;;;4972908;28;20026;-79
2023/01/15 03:05:58;;;;;;;0.15;0.10;;;10.00;80.40;;;;;;4974337;28;20122;-78
2023/01/15 03:08:24;;;;;;;0.50;0.13;;;10.00;80.90;;;;;;4974018;28;20026;-79
2023/01/15 03:11:05;;;;;;;0.00;0.00;;;10.00;80.70;;;;;;4973239;28;20484;-79
2023/01/15 03:13:38;;;;;;;0.15;0.00;;;10.00;80.90;;;;;;4974949;28;20026;-79
2023/01/15 03:16:34;;;;;;;0.10;0.08;;;9.90;81.00;;;;;;4976323;28;20509;-79
2023/01/15 03:19:25;;;;;;;0.20;0.10;;;9.90;81.00;;;;;;4976245;28;20033;-79
2023/01/15 03:21:54;;;;;;;0.52;0.20;;;9.90;81.20;;;;;;4976057;28;20479;-79
2023/01/15 03:24:27;;;;;;;0.15;0.10;;;9.90;81.70;;;;;;4976399;28;20117;-79
2023/01/15 03:26:53;;;;;;;0.00;0.00;;;9.80;81.50;;;;;;4976398;28;20055;-78
2023/01/15 03:29:22;;;;;;;0.35;0.13;;;9.80;81.60;;;;;;4976062;28;20029;-80
2023/01/15 03:31:48;;;;;;;0.22;0.03;;;9.80;81.80;;;;;;4976298;28;20075;-78
2023/01/15 03:34:14;;;;;;;0.05;0.00;;;9.80;81.50;;;;;;4976035;28;20381;-79
2023/01/15 03:36:40;;;;;;;0.50;0.10;;;9.80;81.60;;;;;;4976132;28;20030;-77
2023/01/15 03:39:07;;;;;;;0.00;0.00;;;9.90;81.70;;;;;;4975647;28;20475;-78
2023/01/15 03:41:45;;;;;;;1.00;0.10;;;9.80;81.70;;;;;;4975803;28;20512;-79
2023/01/15 03:44:31;;;;;;;0.68;0.10;;;9.80;82.00;;;;;;4975783;28;20389;-78
2023/01/15 03:47:17;;;;;;;0.10;0.00;;;9.90;81.70;;;;;;4977163;28;20512;-79
2023/01/15 03:49:49;;;;;;;;;;;9.80;81.50;;;;;;4963021;28;20080;-79
2023/01/15 03:52:32;;;;;;;0.00;0.00;;;9.80;81.50;;;;;;5006896;28;19894;-77
2023/01/15 03:55:14;;;;;;;0.10;0.05;;;9.90;81.40;;;;;;4983805;28;20082;-75
2023/01/15 03:58:06;;;;;;;0.20;0.00;;;9.90;81.40;;;;;;4974610;28;20061;-78
2023/01/15 04:00:36;;;;;;;0.00;0.00;;;9.90;81.50;;;;;;4973634;28;20555;-76
2023/01/15 04:03:05;;;;;;;0.10;0.00;;;9.90;81.00;;;;;;4972390;28;20468;-75
2023/01/15 04:05:33;;;;;;;0.00;0.00;;;9.90;81.30;;;;;;4972522;28;20023;-75
2023/01/15 04:08:00;;;;;;;0.05;0.03;;;9.90;81.10;;;;;;4972391;28;20088;-75
2023/01/15 04:10:26;;;;;;;0.00;0.00;;;9.90;81.40;;;;;;4972307;28;20027;-76
2023/01/15 04:12:51;;;;;;;0.20;0.00;;;10.00;80.60;;;;;;4972233;28;20035;-79
2023/01/15 04:15:18;;;;;;;0.00;0.00;;;10.00;81.00;;;;;;4972387;28;20042;-77
2023/01/15 04:17:43;;;;;;;0.20;0.10;;;10.00;80.40;;;;;;4972075;28;20083;-74
2023/01/15 04:20:10;;;;;;;0.10;0.00;;;9.90;81.00;;;;;;4972995;28;20035;-75
2023/01/15 04:22:35;;;;;;;0.20;0.00;;;9.90;80.90;;;;;;4972189;28;20034;-74
2023/01/15 04:25:02;;;;;;;0.98;0.10;;;9.90;81.30;;;;;;4971145;28;20027;-76
2023/01/15 04:27:28;;;;;;;0.00;0.00;;;9.90;80.70;;;;;;4971872;28;20030;-74
2023/01/15 04:29:53;;;;;;;0.38;0.15;;;9.90;81.20;;;;;;4972212;28;20048;-75
2023/01/15 04:32:19;;;;;;;0.20;0.10;;;9.90;80.40;;;;;;4973327;28;20501;-76
2023/01/15 04:34:44;;;;;;;1.65;0.08;;;10.00;79.90;;;;;;4975530;28;20114;-77
2023/01/15 04:37:10;;;;;;;0.10;0.00;;;10.00;80.00;;;;;;4994031;28;20092;-75
2023/01/15 04:39:36;;;;;;;0.08;0.00;;;10.10;79.60;;;;;;4993895;28;20053;-74
2023/01/15 04:44:46;;;;;;;0.32;0.10;;;10.10;79.80;;;;;;4994845;28;20129;-74
2023/01/15 04:47:11;;;;;;;0.10;0.08;;;10.00;80.60;;;;;;4977260;28;20068;-78
2023/01/15 04:49:37;;;;;;;1.55;0.00;;;10.00;81.40;;;;;;4971973;28;20073;-76
2023/01/15 04:52:02;;;;;;;0.08;0.00;;;9.90;82.00;;;;;;4971813;28;20030;-77
2023/01/15 04:54:28;;;;;;;0.10;0.00;;;10.00;81.60;;;;;;4971476;28;20047;-74
2023/01/15 04:56:54;;;;;;;1.80;0.08;;;9.90;81.70;;;;;;4971536;28;20467;-75
2023/01/15 04:59:23;;;;;;;0.63;0.00;;;9.90;81.60;;;;;;4971237;28;20027;-76
2023/01/15 05:01:49;;;;;;;0.00;0.00;;;10.00;81.50;;;;;;4955616;28;20065;-77
2023/01/15 05:04:15;;;;;;;0.00;0.00;;;9.90;81.70;;;;;;4971478;28;20489;-77
2023/01/15 05:06:41;;;;;;;0.85;0.00;;;10.10;80.60;;;;;;4971483;28;20023;-76
2023/01/15 05:09:06;;;;;;;0.22;0.00;;;10.00;80.90;;;;;;4971690;28;20043;-77
2023/01/15 05:11:37;;;;;;;0.00;0.00;;;10.00;81.10;;;;;;4971293;28;20019;-77
2023/01/15 05:14:03;;;;;;;0.17;0.00;;;10.00;82.00;;;;;;4971181;28;20034;-78
2023/01/15 05:16:29;;;;;;;1.13;0.00;;;9.90;82.00;;;;;;4971166;28;20037;-75
2023/01/15 05:18:58;;;;;;;0.10;0.10;;;9.90;81.40;;;;;;4971210;28;20191;-78
2023/01/15 05:21:31;;;;;;;1.02;0.03;;;10.00;81.20;;;;;;4970931;28;20022;-75
2023/01/15 05:23:59;;;;;;;0.00;0.00;;;10.10;81.00;;;;;;4971110;28;20070;-74
2023/01/15 05:26:26;;;;;;;0.80;0.10;;;10.10;81.30;;;;;;4972135;28;20085;-75
2023/01/15 05:28:56;;;;;;;0.00;0.00;;;10.10;81.30;;;;;;4971142;28;20030;-77
2023/01/15 05:31:24;;;;;;;0.10;0.00;;;10.00;81.20;;;;;;4972068;28;20027;-76
2023/01/15 05:33:51;;;;;;;0.30;0.10;;;10.10;80.80;;;;;;4971210;28;20085;-77
2023/01/15 05:36:20;;;;;;;2.30;0.10;;;10.10;80.20;;;;;;4971035;28;20046;-76
2023/01/15 05:38:46;;;;;;;0.52;0.10;;;10.20;80.30;;;;;;4970775;28;20023;-77
2023/01/15 05:44:02;;;;;;;0.63;0.10;;;10.20;79.70;;;;;;4972252;28;20478;-77
2023/01/15 05:46:28;;;;;;;0.00;0.00;;;10.20;80.10;;;;;;4970536;28;20081;-75
2023/01/15 05:48:58;;;;;;;0.52;0.22;;;10.20;80.10;;;;;;4970486;28;20027;-77
2023/01/15 05:51:23;;;;;;;1.27;0.10;;;10.20;80.30;;;;;;4970360;28;20121;-76
2023/01/15 05:53:49;;;;;;;0.00;0.00;;;10.10;80.80;;;;;;4970437;28;20121;-77
2023/01/15 05:56:15;;;;;;;0.00;0.00;;;10.10;81.10;;;;;;4970326;28;20476;-77
2023/01/15 05:58:40;;;;;;;0.00;0.00;;;10.10;80.90;;;;;;4970872;28;20034;-77
2023/01/15 06:01:10;;;;;;;0.13;0.00;;;10.00;80.90;;;;;;4970735;28;20050;-76
2023/01/15 06:03:36;;;;;;;0.20;0.00;;;10.10;80.20;;;;;;4970454;28;20143;-78
2023/01/15 06:06:02;;;;;;;2.50;0.25;;;10.20;79.80;;;;;;4970208;28;20053;-75
2023/01/15 06:08:28;;;;;;;0.63;0.05;;;10.10;80.30;;;;;;4970666;28;20031;-77
2023/01/15 06:10:53;;;;;;;0.00;0.00;;;10.10;80.70;;;;;;4982705;28;20018;-74
2023/01/15 06:13:19;;;;;;;0.00;0.00;;;10.10;81.10;;;;;;4986541;28;20130;-75
2023/01/15 06:15:45;;;;;;;0.10;0.00;;;10.00;81.60;;;;;;4972030;28;20043;-76
2023/01/15 06:18:11;;;;;;;0.10;0.10;;;10.00;81.80;;;;;;4970608;28;20068;-76
2023/01/15 06:20:38;;;;;;;0.10;0.10;;;9.90;83.00;;;;;;4970067;28;20027;-78
2023/01/15 06:23:04;;;;;;;0.05;0.00;;;9.80;83.20;;;;;;5002696;28;20124;-75
2023/01/15 06:25:35;;;;;;;0.98;0.10;;;9.70;83.70;;;;;;5051871;28;20466;-76
2023/01/15 06:28:02;;;;;;;0.00;0.00;;;9.70;84.10;;;;;;5051580;28;20026;-76
2023/01/15 06:30:28;;;;;;;0.85;0.20;;;9.80;84.30;;;;;;5051172;28;20029;-78
2023/01/15 06:32:54;;;;;;;1.45;0.00;;;9.60;85.00;;;;;;5051412;28;20082;-77
2023/01/15 06:35:19;;;;;;;0.28;0.20;;;9.60;85.50;;;;;;5051350;28;20033;-77
2023/01/15 06:37:45;;;;;;;0.30;0.00;;;9.60;85.20;;;;;;5051260;28;20383;-77
2023/01/15 06:40:11;;;;;;;0.00;0.00;;;9.60;85.20;;;;;;5051876;28;20021;-76
2023/01/15 06:48:05;;;;;;;0.00;0.00;;;9.70;85.10;;;;;;5054290;28;20078;-78
2023/01/15 06:50:31;;;;;;;0.25;0.10;;;9.60;85.10;;;;;;5055235;28;20037;-76
2023/01/15 06:52:56;;;;;;;0.00;0.00;;;9.60;84.10;;;;;;5055379;28;20025;-77
2023/01/15 06:55:23;;;;;;;0.20;0.10;;;9.70;84.70;;;;;;5038816;28;20075;-77
2023/01/15 06:57:48;;;;;;;0.10;0.10;;;9.70;85.10;;;;;;5055277;28;20487;-76
2023/01/15 07:00:14;;;;;;;0.20;0.10;;;9.60;85.00;;;;;;5055002;28;20029;-77
2023/01/15 07:02:40;;;;;;;0.63;0.30;;;9.70;83.90;;;;;;5054507;28;20024;-76
2023/01/15 07:05:06;;;;;;;0.50;0.10;;;9.70;83.80;;;;;;5055509;28;20017;-76
2023/01/15 07:07:36;;;;;;;0.25;0.20;;;9.70;83.50;;;;;;5054585;28;20513;-77
2023/01/15 07:10:03;;;;;;;1.02;0.10;;;9.80;83.60;;;;;;5056378;28;20508;-77
2023/01/15 07:12:29;;;;;;;0.65;0.10;;;9.80;82.70;;;;;;5054635;28;20025;-77
2023/01/15 07:14:54;;;;;;;0.95;0.10;;;9.80;83.10;;;;;;5054979;28;20048;-74
2023/01/15 07:17:20;;;;;;;1.17;0.00;;;9.70;83.30;;;;;;5054899;28;20496;-74
2023/01/15 07:19:46;;;;;;;0.00;0.00;;;9.80;82.10;;;;;;5055145;28;20021;-78
2023/01/15 07:22:11;;;;;;;0.17;0.15;;;9.80;82.60;;;;;;5054031;28;20038;-75
2023/01/15 07:24:38;;;;;;;0.57;0.35;;;9.80;81.80;;;;;;5055070;28;20025;-75
2023/01/15 07:27:05;;;;;;;0.05;0.05;;;9.80;83.10;;;;;;5054752;28;20112;-75
2023/01/15 07:29:30;;;;;;;0.60;0.25;;;9.80;83.00;;;;;;5054882;28;20036;-74
2023/01/15 07:31:56;;;;;;;0.45;0.10;;;9.80;83.40;;;;;;5054688;28;20037;-75
2023/01/15 07:34:21;;;;;;;0.47;0.20;;;9.80;83.50;;;;;;5054700;28;20028;-75
2023/01/15 07:36:50;;;;;;;0.90;0.25;;;9.70;84.20;;;;;;5054311;28;20037;-78
2023/01/15 07:39:16;;;;;;;1.27;0.20;;;9.70;84.80;;;;;;5055030;28;20029;-77
2023/01/15 07:50:29;;;;;;;0.00;0.00;;;8.00;84.00;;;;;;5039483;28;20036;-78
2023/01/15 07:52:55;;;;;;;0.38;0.20;;;7.70;85.70;;;;;;5052528;28;20031;-77
2023/01/15 07:55:22;;;;;;;0.00;0.00;;;7.50;86.30;;;;;;5053574;28;20053;-78
2023/01/15 07:57:48;;;;;;;1.33;0.35;;;7.40;86.10;;;;;;5054057;28;20052;-78
2023/01/15 08:00:18;;;;;;;2.03;0.45;;;7.40;87.10;;;;;;5052686;28;20048;-77
2023/01/15 08:02:48;;;;;;;1.95;1.25;;;7.40;87.00;;;;;;5054171;28;20150;-77
2023/01/15 08:05:14;;;;;;;1.27;0.80;;;7.40;86.80;;;;;;5037984;28;20029;-77
2023/01/15 08:07:41;;;;;;;0.20;0.20;;;7.40;86.20;;;;;;5053964;28;20473;-78
2023/01/15 08:10:11;;;;;;;4.82;3.33;;;7.20;83.70;;;;;;5054829;28;20108;-79
2023/01/15 08:15:21;;;;;;;0.85;0.38;;;7.10;84.70;;;;;;5055744;28;20044;-77
2023/01/15 08:17:48;;;;;;;0.10;0.10;;;7.00;84.80;;;;;;5055450;28;20033;-78
2023/01/15 08:20:19;;;;;;;0.08;0.08;;;6.90;85.10;;;;;;5072297;28;20033;-77
2023/01/15 08:22:46;;;;;;;0.32;0.32;;;6.90;83.60;;;;;;5078040;28;20017;-79
2023/01/15 08:25:25;;;;;;;0.10;0.10;;;6.80;84.40;;;;;;5077319;28;20037;-79
2023/01/15 08:28:03;;;;;;;0.30;0.10;;;6.70;83.60;;;;;;5077438;28;20070;-78
2023/01/15 08:30:29;;;;;;;0.20;0.20;;;6.60;84.30;;;;;;5075320;28;20031;-79
2023/01/15 08:32:59;;;;;;;0.65;0.20;;;6.60;84.80;;;;;;5055475;28;20549;-80
2023/01/15 08:35:26;;;;;;;0.65;0.40;;;6.40;84.90;;;;;;5055375;28;20063;-79
2023/01/15 08:37:52;;;;;;;13.35;1.63;;;6.30;86.40;;;;;;5037401;28;20122;-76
2023/01/15 08:40:17;;;;;;;8.70;0.77;;;6.30;88.00;;;;;;5052841;28;20017;-79
2023/01/15 08:42:43;;;;;;;4.07;0.80;;;7.00;93.70;;;;;;5053343;28;20020;-78
2023/01/15 08:45:09;;;;;;;1.13;0.20;;;7.30;86.20;;;;;;5053386;28;20060;-77
2023/01/15 08:47:36;;;;;;;1.20;0.20;;;7.40;86.00;;;;;;5053235;28;20048;-79
2023/01/15 08:50:01;;;;;;;2.05;0.30;;;7.50;82.20;;;;;;5053317;28;20082;-74
2023/01/15 08:52:27;;;;;;;2.90;0.52;;;7.50;81.20;;;;;;5053642;28;20028;-76
2023/01/15 08:54:53;;;;;;;0.47;0.20;;;7.50;80.60;;;;;;5054246;28;20148;-80
2023/01/15 08:57:20;;;;;;;0.20;0.20;;;7.50;79.20;;;;;;5053597;28;20024;-81
2023/01/15 08:59:46;;;;;;;0.35;0.20;;;7.40;79.00;;;;;;5052906;28;20032;-81
2023/01/15 09:09:37;;;;;;;1.95;0.20;;;7.80;77.70;;;;;;5053851;28;20078;-89
2023/01/15 09:12:17;;;;;;;0.25;0.25;;;7.80;78.70;;;;;;5050680;28;20134;-85
2023/01/15 09:14:42;;;;;;;0.50;0.47;;;7.90;77.70;;;;;;5029436;28;20083;-80
2023/01/15 09:17:08;;;;;;;0.40;0.40;;;7.60;76.70;;;;;;5034545;28;20028;-78
2023/01/15 09:19:33;;;;;;;0.15;0.10;;;7.10;79.40;;;;;;5034748;28;20152;-81
2023/01/15 09:21:59;;;;;;;0.17;0.17;;;6.90;79.00;;;;;;5034926;28;20029;-79
2023/01/15 09:24:25;;;;;;;0.17;0.17;;;6.40;79.40;;;;;;5034845;28;20116;-80
2023/01/15 09:26:52;;;;;;;0.40;0.30;;;6.30;81.10;;;;;;5034567;28;20091;-80
2023/01/15 09:29:17;;;;;;;0.40;0.17;;;6.20;81.50;;;;;;5034518;28;20029;-79
2023/01/15 09:31:45;;;;;;;0.08;0.08;;;6.10;81.80;;;;;;5034658;28;20127;-81
2023/01/15 09:34:10;;;;;;;0.52;0.20;;;6.00;81.80;;;;;;5034610;28;20053;-81
2023/01/15 09:36:36;;;;;;;0.10;0.10;;;6.00;81.90;;;;;;5043313;28;20528;-80
2023/01/15 09:39:03;;;;;;;0.40;0.20;;;5.60;82.10;;;;;;5052490;28;20099;-79
2023/01/15 09:44:51;;;;;;;0.22;0.22;;;5.70;82.40;;;;;;5052285;28;20079;-79
2023/01/15 09:47:27;;;;;;;0.57;0.20;;;5.60;81.80;;;;;;5048542;28;20122;-80
2023/01/15 09:49:59;;;;;;;;;;;5.60;82.40;;;;;;5060645;28;20025;-83
2023/01/15 09:52:45;;;;;;;0.45;0.30;;;5.60;82.40;;;;;;5038409;28;19994;-80
2023/01/15 09:55:21;;;;;;;0.30;0.20;;;5.30;83.90;;;;;;4998062;28;20504;-81
2023/01/15 09:57:55;;;;;;;0.63;0.40;;;5.20;83.20;;;;;;5012685;28;20089;-80
2023/01/15 10:00:25;;;;;;;1.25;0.68;;;4.90;83.40;;;;;;5010863;28;20371;-81
2023/01/15 10:03:09;;;;;;;0.60;0.40;;;4.80;84.30;;;;;;4996328;28;20021;-82
2023/01/15 10:05:44;;;;;;;0.75;0.30;;;4.80;84.60;;;;;;5006197;28;20165;-77
2023/01/15 10:08:29;;;;;;;0.40;0.40;;;4.80;84.10;;;;;;4997061;28;20111;-79
2023/01/15 10:11:14;;;;;;;0.68;0.40;;;4.70;84.50;;;;;;5004810;28;20025;-77
2023/01/15 10:13:49;;;;;;;0.63;0.50;;;4.70;85.00;;;;;;4987870;28;20368;-78
2023/01/15 10:16:24;;;;;;;0.40;0.30;;;4.80;84.20;;;;;;4994584;28;20122;-79
2023/01/15 10:18:50;;;;;;;;;;;4.70;85.00;;;;;;5008821;28;20037;-75
2023/01/15 10:21:35;;;;;;;2.00;1.00;;;4.70;84.40;;;;;;4994576;28;20375;-80
2023/01/15 10:24:04;;;;;;;1.00;0.90;;;4.80;84.10;;;;;;4985402;28;20024;-83
2023/01/15 10:26:57;;;;;;;0.95;0.70;;;4.80;84.20;;;;;;5003205;28;20444;-82
2023/01/15 10:29:42;;;;;;;2.28;1.48;;;4.90;84.00;;;;;;4998034;28;20556;-83
2023/01/15 10:32:29;;;;;;;1.35;1.20;;;4.90;84.00;;;;;;5001959;28;20531;-77
2023/01/15 10:34:56;;;;;;;2.67;1.73;;;4.80;84.40;;;;;;5023182;28;20021;-78
2023/01/15 10:37:29;;;;;;;2.33;1.05;;;4.80;85.40;;;;;;4999431;28;20383;-76
2023/01/15 10:40:16;;;;;;;2.08;1.30;;;4.80;84.10;;;;;;5012558;28;20031;-80
2023/01/15 10:42:53;;;;;;;1.77;1.10;;;4.80;84.00;;;;;;4998223;28;20030;-80
2023/01/15 10:45:24;;;;;;;0.45;0.40;;;4.80;85.10;;;;;;5011014;28;20026;-83
2023/01/15 10:48:21;;;;;;;0.55;0.35;;;4.90;83.70;;;;;;5039179;28;20020;-81
2023/01/15 10:50:48;;;;;;;0.50;0.20;;;4.90;83.00;;;;;;4984731;28;20029;-80
2023/01/15 10:53:41;;;;;;;0.70;0.30;;;4.70;84.60;;;;;;5012919;28;20028;-81
2023/01/15 10:56:23;;;;;;;2.17;0.70;;;4.60;84.70;;;;;;5001939;28;20039;-81
2023/01/15 10:59:11;;;;;;;0.32;0.30;;;4.60;85.30;;;;;;5018279;28;20034;-79
2023/01/15 11:01:39;;;;;;;0.47;0.43;;;4.60;85.30;;;;;;5004643;28;20032;-76
2023/01/15 11:04:05;;;;;;;0.50;0.40;;;4.60;84.50;;;;;;4998523;28;20025;-78
2023/01/15 11:06:31;;;;;;;4.35;0.73;;;4.50;84.20;;;;;;4995963;28;20021;-76
2023/01/15 11:08:59;;;;;;;0.57;0.45;;;4.40;85.70;;;;;;5004695;28;20028;-78
2023/01/15 11:20:15;;;;;;;1.10;0.80;;;4.60;85.10;;;;;;5001346;28;20391;-80
2023/01/15 11:22:41;;;;;;;0.73;0.60;;;4.70;84.50;;;;;;5017972;28;20083;-77
2023/01/15 11:25:09;;;;;;;0.60;0.50;;;4.70;84.60;;;;;;4998945;28;20029;-78
2023/01/15 11:27:36;;;;;;;1.73;0.70;;;4.60;84.00;;;;;;5004383;28;20490;-77
2023/01/15 11:30:04;;;;;;;0.80;0.50;;;4.60;83.80;;;;;;4996403;28;20027;-76
2023/01/15 11:32:36;;;;;;;1.02;0.73;;;4.60;84.40;;;;;;4996093;28;20033;-76
2023/01/15 11:35:08;;;;;;;0.40;0.40;;;4.60;84.50;;;;;;4990357;28;20031;-77
2023/01/15 11:37:33;;;;;;;0.88;0.60;;;4.60;83.90;;;;;;4953479;28;20118;-76
2023/01/15 11:40:07;;;;;;;2.22;1.45;;;4.60;84.50;;;;;;4953186;28;20119;-76
2023/01/15 11:51:09;;;;;;;1.50;0.55;;;4.10;85.40;;;;;;4954565;29;20165;-76
2023/01/15 11:53:45;;;;;;;0.60;0.40;;;4.00;87.20;;;;;;4954544;28;20043;-76
2023/01/15 11:56:16;;;;;;;0.82;0.45;;;4.00;87.20;;;;;;4973574;28;20046;-76
2023/01/15 11:58:48;;;;;;;0.50;0.50;;;4.00;86.80;;;;;;4956166;28;20033;-76
2023/01/15 12:01:31;;;;;;;0.30;0.30;;;4.10;86.50;;;;;;4955768;28;20114;-75
2023/01/15 12:03:59;;;;;;;1.08;0.50;;;4.10;85.50;;;;;;4955916;28;20062;-77
2023/01/15 12:06:26;;;;;;;1.17;0.63;;;4.00;85.20;;;;;;4953998;28;20057;-76
2023/01/15 12:09:20;;;;;;;1.15;0.80;;;3.90;86.10;;;;;;4956185;28;20031;-74
2023/01/15 12:11:59;;;;;;;1.60;1.00;;;3.90;85.90;;;;;;4955831;28;20026;-75
2023/01/15 12:14:52;;;;;;;2.33;1.30;;;3.90;86.70;;;;;;4953965;28;20023;-74
2023/01/15 12:17:42;;;;;;;0.45;0.40;;;3.80;86.10;;;;;;4954520;28;20084;-75
2023/01/15 12:20:14;;;;;;;0.45;0.40;;;3.70;86.50;;;;;;4955846;28;20084;-75
2023/01/15 12:22:45;;;;;;;0.20;0.20;;;3.60;85.70;;;;;;4955047;28;20031;-75
2023/01/15 12:25:49;;;;;;;0.70;0.52;;;3.50;85.30;;;;;;4955576;28;20509;-76
2023/01/15 12:28:28;;;;;;;1.55;0.68;;;3.30;86.20;;;;;;4976737;28;20030;-73
2023/01/15 12:31:04;;;;;;;0.17;0.17;;;3.40;86.70;;;;;;4976807;28;20064;-76
2023/01/15 12:33:54;;;;;;;0.90;0.55;;;3.40;86.40;;;;;;4963670;28;20038;-76
2023/01/15 12:36:20;;;;;;;1.95;1.20;;;3.50;85.60;;;;;;4957439;28;20112;-75
2023/01/15 12:38:58;;;;;;;2.80;1.50;;;3.60;86.00;;;;;;4974881;28;20090;-76
2023/01/15 12:45:00;;;;;;;0.73;0.60;;;3.60;85.10;;;;;;4991243;28;20386;-76
2023/01/15 12:47:50;;;;;;;0.35;0.30;;;3.50;85.00;;;;;;4973244;28;20478;-78
2023/01/15 12:50:44;;;;;;;2.15;0.93;;;3.60;84.80;;;;;;4973658;28;20018;-76
2023/01/15 12:53:13;;;;;;;1.85;0.30;;;3.60;85.20;;;;;;4974508;28;20507;-76
2023/01/15 12:55:59;;;;;;;0.22;0.22;;;3.50;85.00;;;;;;4974108;28;20061;-75
2023/01/15 12:58:44;;;;;;;0.63;0.55;;;3.50;85.20;;;;;;4973881;28;20023;-76
2023/01/15 13:01:32;;;;;;;0.43;0.40;;;3.40;85.20;;;;;;4973839;28;20026;-75
2023/01/15 13:04:11;;;;;;;0.57;0.40;;;3.40;85.70;;;;;;4973615;28;20037;-75
2023/01/15 13:06:40;;;;;;;2.78;1.17;;;3.40;85.40;;;;;;4974195;28;20540;-74
2023/01/15 13:09:12;;;;;;;0.90;0.57;;;3.50;86.00;;;;;;4974055;28;20121;-75
2023/01/15 13:11:37;;;;;;;2.00;0.88;;;3.60;85.00;;;;;;4974265;28;20121;-76
2023/01/15 13:14:13;;;;;;;3.20;0.90;;;3.60;85.10;;;;;;4974305;28;20113;-74
2023/01/15 13:16:44;;;;;;;4.78;1.90;;;3.70;84.90;;;;;;4974224;28;20038;-74
2023/01/15 13:19:46;;;;;;;2.55;1.50;;;3.80;84.60;;;;;;4973923;28;20026;-73
2023/01/15 13:22:17;;;;;;;2.78;1.70;;;3.90;84.50;;;;;;4974389;28;20054;-74
2023/01/15 13:24:52;;;;;;;3.65;2.03;;;3.90;84.20;;;;;;4973715;28;20489;-72
2023/01/15 13:27:45;;;;;;;1.58;1.02;;;4.00;83.60;;;;;;4974361;28;20536;-82
2023/01/15 13:30:43;;;;;;;2.53;1.35;;;4.00;83.40;;;;;;4973936;28;20394;-73
2023/01/15 13:33:27;;;;;;;4.07;2.70;;;4.20;83.50;;;;;;4974021;28;20022;-73
2023/01/15 13:36:10;;;;;;;2.95;1.60;;;4.10;82.20;;;;;;4973569;28;20485;-73
2023/01/15 13:38:40;;;;;;;1.58;1.10;;;4.10;81.90;;;;;;4973544;28;20030;-73
2023/01/15 13:41:07;;;;;;;3.15;1.20;;;4.20;80.80;;;;;;4973768;28;20027;-74
2023/01/15 13:43:41;;;;;;;1.25;0.80;;;4.10;79.90;;;;;;4973186;28;20057;-73
2023/01/15 13:46:12;;;;;;;1.50;0.80;;;4.10;80.20;;;;;;4973983;28;20172;-73
2023/01/15 13:48:51;;;;;;;1.90;1.02;;;4.00;80.80;;;;;;4973691;28;20032;-73
2023/01/15 13:51:22;;;;;;;1.30;0.77;;;4.00;81.20;;;;;;4973351;28;20030;-75
2023/01/15 13:53:49;;;;;;;1.60;0.70;;;4.10;80.80;;;;;;4973140;28;20110;-74
2023/01/15 13:56:26;;;;;;;2.10;1.20;;;4.10;81.20;;;;;;4973230;28;20031;-73
2023/01/15 13:58:53;;;;;;;0.95;0.60;;;4.00;81.90;;;;;;4973438;28;20497;-74
2023/01/15 14:01:19;;;;;;;0.93;0.40;;;4.10;82.10;;;;;;4973493;28;20027;-74
2023/01/15 14:03:58;;;;;;;0.55;0.55;;;4.10;81.50;;;;;;4973012;28;20383;-74
2023/01/15 14:06:52;;;;;;;0.70;0.40;;;4.10;81.40;;;;;;4973305;28;20560;-74
2023/01/15 14:09:21;;;;;;;0.45;0.28;;;4.20;80.20;;;;;;4973327;28;20413;-75